sensor_id;sensor_type;location;lat;lon;timestamp;P1;durP1;ratioP1;P2;durP2;ratioP2
44098;SDS011;29762;50.086;14.364;2022-10-19T00:02:28;5.63;;;4.80;;
44098;SDS011;29762;50.086;14.364;2022-10-19T00:07:47;5.88;;;4.72;;
44098;SDS011;29762;50.086;14.364;2022-10-19T00:13:06;5.50;;;4.38;;
44098;SDS011;29762;50.086;14.364;2022-10-19T00:18:26;5.53;;;4.40;;
44098;SDS011;29762;50.086;14.364;2022-10-19T00:23:45;4.93;;;4.35;;
44098;SDS011;29762;50.086;14.364;2022-10-19T00:29:05;6.22;;;4.85;;
44098;SDS011;29762;50.086;14.364;2022-10-19T00:34:24;5.50;;;4.90;;
44098;SDS011;29762;50.086;14.364;2022-10-19T00:39:44;4.75;;;4.30;;
44098;SDS011;29762;50.086;14.364;2022-10-19T00:45:05;4.90;;;4.35;;
44098;SDS011;29762;50.086;14.364;2022-10-19T00:50:30;4.75;;;4.30;;
44098;SDS011;29762;50.086;14.364;2022-10-19T00:55:49;5.43;;;4.45;;
44098;SDS011;29762;50.086;14.364;2022-10-19T01:01:10;4.53;;;4.05;;
44098;SDS011;29762;50.086;14.364;2022-10-19T01:06:34;5.18;;;4.40;;
44098;SDS011;29762;50.086;14.364;2022-10-19T01:17:43;4.88;;;4.18;;
44098;SDS011;29762;50.086;14.364;2022-10-19T01:34:31;4.53;;;4.10;;
44098;SDS011;29762;50.086;14.364;2022-10-19T01:40:23;4.88;;;4.38;;
44098;SDS011;29762;50.086;14.364;2022-10-19T01:45:47;4.35;;;3.95;;
44098;SDS011;29762;50.086;14.364;2022-10-19T01:51:15;4.78;;;4.15;;
44098;SDS011;29762;50.086;14.364;2022-10-19T01:56:37;4.60;;;4.00;;
44098;SDS011;29762;50.086;14.364;2022-10-19T02:02:00;4.55;;;4.03;;
44098;SDS011;29762;50.086;14.364;2022-10-19T02:07:22;4.28;;;3.80;;
44098;SDS011;29762;50.086;14.364;2022-10-19T02:12:42;3.92;;;3.53;;
44098;SDS011;29762;50.086;14.364;2022-10-19T02:18:02;4.45;;;4.05;;
44098;SDS011;29762;50.086;14.364;2022-10-19T02:23:23;4.15;;;3.72;;
44098;SDS011;29762;50.086;14.364;2022-10-19T02:28:43;4.00;;;3.55;;
44098;SDS011;29762;50.086;14.364;2022-10-19T02:34:03;3.78;;;3.47;;
44098;SDS011;29762;50.086;14.364;2022-10-19T02:39:23;4.70;;;3.70;;
44098;SDS011;29762;50.086;14.364;2022-10-19T02:50:08;4.00;;;3.63;;
44098;SDS011;29762;50.086;14.364;2022-10-19T02:55:29;3.70;;;3.40;;
44098;SDS011;29762;50.086;14.364;2022-10-19T03:00:48;3.85;;;3.50;;
44098;SDS011;29762;50.086;14.364;2022-10-19T03:06:07;3.60;;;3.30;;
44098;SDS011;29762;50.086;14.364;2022-10-19T03:11:27;3.60;;;3.30;;
44098;SDS011;29762;50.086;14.364;2022-10-19T03:16:47;3.60;;;3.30;;
44098;SDS011;29762;50.086;14.364;2022-10-19T03:22:06;3.47;;;3.17;;
44098;SDS011;29762;50.086;14.364;2022-10-19T03:27:26;3.83;;;3.42;;
44098;SDS011;29762;50.086;14.364;2022-10-19T03:32:46;3.53;;;3.22;;
44098;SDS011;29762;50.086;14.364;2022-10-19T03:38:05;3.72;;;3.40;;
44098;SDS011;29762;50.086;14.364;2022-10-19T03:43:25;3.55;;;3.25;;
44098;SDS011;29762;50.086;14.364;2022-10-19T03:48:44;3.63;;;3.33;;
44098;SDS011;29762;50.086;14.364;2022-10-19T03:54:05;3.47;;;3.17;;
44098;SDS011;29762;50.086;14.364;2022-10-19T03:59:26;3.53;;;3.20;;
44098;SDS011;29762;50.086;14.364;2022-10-19T04:04:45;3.17;;;2.88;;
44098;SDS011;29762;50.086;14.364;2022-10-19T04:10:05;3.20;;;2.80;;
44098;SDS011;29762;50.086;14.364;2022-10-19T04:15:24;3.58;;;3.28;;
44098;SDS011;29762;50.086;14.364;2022-10-19T04:20:44;2.97;;;2.78;;
44098;SDS011;29762;50.086;14.364;2022-10-19T04:26:05;3.80;;;3.50;;
44098;SDS011;29762;50.086;14.364;2022-10-19T04:31:25;3.38;;;3.08;;
44098;SDS011;29762;50.086;14.364;2022-10-19T04:36:45;3.80;;;3.20;;
44098;SDS011;29762;50.086;14.364;2022-10-19T04:42:05;3.92;;;3.30;;
44098;SDS011;29762;50.086;14.364;2022-10-19T04:47:25;3.55;;;3.25;;
44098;SDS011;29762;50.086;14.364;2022-10-19T04:52:44;5.15;;;3.08;;
44098;SDS011;29762;50.086;14.364;2022-10-19T04:58:04;3.53;;;2.97;;
44098;SDS011;29762;50.086;14.364;2022-10-19T05:03:23;3.58;;;3.15;;
44098;SDS011;29762;50.086;14.364;2022-10-19T05:08:43;3.80;;;3.28;;
44098;SDS011;29762;50.086;14.364;2022-10-19T05:14:02;5.43;;;3.53;;
44098;SDS011;29762;50.086;14.364;2022-10-19T05:19:21;10.38;;;3.70;;
44098;SDS011;29762;50.086;14.364;2022-10-19T05:24:41;8.50;;;4.22;;
44098;SDS011;29762;50.086;14.364;2022-10-19T05:30:00;8.77;;;4.22;;
44098;SDS011;29762;50.086;14.364;2022-10-19T05:35:19;10.52;;;4.60;;
44098;SDS011;29762;50.086;14.364;2022-10-19T05:40:43;12.10;;;5.10;;
44098;SDS011;29762;50.086;14.364;2022-10-19T05:46:04;10.93;;;4.88;;
44098;SDS011;29762;50.086;14.364;2022-10-19T05:51:26;10.13;;;4.43;;
44098;SDS011;29762;50.086;14.364;2022-10-19T05:56:46;7.80;;;4.57;;
44098;SDS011;29762;50.086;14.364;2022-10-19T06:02:08;8.07;;;4.53;;
44098;SDS011;29762;50.086;14.364;2022-10-19T06:07:31;10.63;;;4.78;;
44098;SDS011;29762;50.086;14.364;2022-10-19T06:12:50;9.90;;;5.25;;
44098;SDS011;29762;50.086;14.364;2022-10-19T06:18:10;6.93;;;4.30;;
44098;SDS011;29762;50.086;14.364;2022-10-19T06:23:31;6.55;;;4.35;;
44098;SDS011;29762;50.086;14.364;2022-10-19T06:28:53;7.70;;;4.35;;
44098;SDS011;29762;50.086;14.364;2022-10-19T06:34:14;9.95;;;4.78;;
44098;SDS011;29762;50.086;14.364;2022-10-19T06:39:33;8.27;;;4.28;;
44098;SDS011;29762;50.086;14.364;2022-10-19T06:44:52;7.03;;;4.05;;
44098;SDS011;29762;50.086;14.364;2022-10-19T06:50:12;6.75;;;4.10;;
44098;SDS011;29762;50.086;14.364;2022-10-19T06:55:32;8.60;;;4.28;;
44098;SDS011;29762;50.086;14.364;2022-10-19T07:00:55;6.63;;;3.85;;
44098;SDS011;29762;50.086;14.364;2022-10-19T07:06:15;7.57;;;4.10;;
44098;SDS011;29762;50.086;14.364;2022-10-19T07:11:34;7.13;;;3.95;;
44098;SDS011;29762;50.086;14.364;2022-10-19T07:16:54;6.78;;;4.22;;
44098;SDS011;29762;50.086;14.364;2022-10-19T07:22:13;57.05;;;22.02;;
44098;SDS011;29762;50.086;14.364;2022-10-19T07:27:33;16.45;;;8.35;;
44098;SDS011;29762;50.086;14.364;2022-10-19T07:32:55;13.85;;;7.80;;
44098;SDS011;29762;50.086;14.364;2022-10-19T07:38:14;11.95;;;6.45;;
44098;SDS011;29762;50.086;14.364;2022-10-19T07:43:33;11.23;;;5.63;;
44098;SDS011;29762;50.086;14.364;2022-10-19T07:48:54;10.25;;;5.53;;
44098;SDS011;29762;50.086;14.364;2022-10-19T07:54:13;9.23;;;5.00;;
44098;SDS011;29762;50.086;14.364;2022-10-19T07:59:33;8.23;;;4.95;;
44098;SDS011;29762;50.086;14.364;2022-10-19T08:04:52;8.73;;;4.63;;
44098;SDS011;29762;50.086;14.364;2022-10-19T08:10:11;9.10;;;4.63;;
44098;SDS011;29762;50.086;14.364;2022-10-19T08:15:31;9.30;;;4.70;;
44098;SDS011;29762;50.086;14.364;2022-10-19T08:20:51;6.40;;;4.35;;
44098;SDS011;29762;50.086;14.364;2022-10-19T08:26:11;7.85;;;4.40;;
44098;SDS011;29762;50.086;14.364;2022-10-19T08:31:30;6.82;;;3.97;;
44098;SDS011;29762;50.086;14.364;2022-10-19T08:36:50;7.78;;;4.03;;
44098;SDS011;29762;50.086;14.364;2022-10-19T08:42:20;6.25;;;3.97;;
44098;SDS011;29762;50.086;14.364;2022-10-19T08:59:29;7.00;;;3.85;;
44098;SDS011;29762;50.086;14.364;2022-10-19T09:05:17;4.55;;;3.30;;
44098;SDS011;29762;50.086;14.364;2022-10-19T09:10:42;5.43;;;3.60;;
44098;SDS011;29762;50.086;14.364;2022-10-19T09:16:03;5.65;;;3.33;;
44098;SDS011;29762;50.086;14.364;2022-10-19T09:21:24;5.43;;;3.58;;
44098;SDS011;29762;50.086;14.364;2022-10-19T09:26:52;5.30;;;3.33;;
44098;SDS011;29762;50.086;14.364;2022-10-19T09:32:17;5.93;;;3.35;;
44098;SDS011;29762;50.086;14.364;2022-10-19T09:37:40;5.05;;;3.35;;
44098;SDS011;29762;50.086;14.364;2022-10-19T09:43:06;6.07;;;3.20;;
44098;SDS011;29762;50.086;14.364;2022-10-19T09:48:50;5.63;;;3.55;;
44098;SDS011;29762;50.086;14.364;2022-10-19T09:54:24;5.53;;;3.58;;
44098;SDS011;29762;50.086;14.364;2022-10-19T09:59:51;7.57;;;3.25;;
44098;SDS011;29762;50.086;14.364;2022-10-19T10:05:14;6.65;;;3.38;;
44098;SDS011;29762;50.086;14.364;2022-10-19T10:10:37;5.13;;;2.95;;
44098;SDS011;29762;50.086;14.364;2022-10-19T10:16:00;4.47;;;2.97;;
44098;SDS011;29762;50.086;14.364;2022-10-19T10:21:29;4.85;;;3.15;;
44098;SDS011;29762;50.086;14.364;2022-10-19T10:26:53;4.85;;;3.17;;
44098;SDS011;29762;50.086;14.364;2022-10-19T10:32:17;5.80;;;3.63;;
44098;SDS011;29762;50.086;14.364;2022-10-19T10:37:39;7.32;;;3.63;;
44098;SDS011;29762;50.086;14.364;2022-10-19T10:43:04;5.53;;;3.38;;
44098;SDS011;29762;50.086;14.364;2022-10-19T10:48:38;4.90;;;3.30;;
44098;SDS011;29762;50.086;14.364;2022-10-19T10:54:08;4.55;;;3.20;;
44098;SDS011;29762;50.086;14.364;2022-10-19T10:59:35;5.03;;;3.20;;
44098;SDS011;29762;50.086;14.364;2022-10-19T11:05:00;5.22;;;3.30;;
44098;SDS011;29762;50.086;14.364;2022-10-19T11:10:25;7.45;;;4.05;;
44098;SDS011;29762;50.086;14.364;2022-10-19T11:15:53;4.93;;;3.30;;
44098;SDS011;29762;50.086;14.364;2022-10-19T11:21:15;4.97;;;2.92;;
44098;SDS011;29762;50.086;14.364;2022-10-19T11:49:30;5.07;;;2.97;;
44098;SDS011;29762;50.086;14.364;2022-10-19T12:00:47;6.03;;;2.90;;
44098;SDS011;29762;50.086;14.364;2022-10-19T12:06:21;3.33;;;2.67;;
44098;SDS011;29762;50.086;14.364;2022-10-19T12:17:23;4.65;;;2.72;;
44098;SDS011;29762;50.086;14.364;2022-10-19T12:22:46;4.07;;;2.42;;
44098;SDS011;29762;50.086;14.364;2022-10-19T12:28:07;4.57;;;2.95;;
44098;SDS011;29762;50.086;14.364;2022-10-19T12:33:36;3.25;;;2.30;;
44098;SDS011;29762;50.086;14.364;2022-10-19T12:44:49;3.22;;;2.53;;
44098;SDS011;29762;50.086;14.364;2022-10-19T12:50:11;2.88;;;2.28;;
44098;SDS011;29762;50.086;14.364;2022-10-19T12:55:30;2.42;;;2.03;;
44098;SDS011;29762;50.086;14.364;2022-10-19T13:00:59;4.13;;;2.55;;
44098;SDS011;29762;50.086;14.364;2022-10-19T13:12:25;2.55;;;2.03;;
44098;SDS011;29762;50.086;14.364;2022-10-19T13:33:46;2.88;;;2.20;;
44098;SDS011;29762;50.086;14.364;2022-10-19T13:39:10;2.72;;;2.00;;
44098;SDS011;29762;50.086;14.364;2022-10-19T13:44:31;2.55;;;1.80;;
44098;SDS011;29762;50.086;14.364;2022-10-19T14:01:07;2.83;;;2.08;;
44098;SDS011;29762;50.086;14.364;2022-10-19T14:06:37;1.77;;;1.60;;
44098;SDS011;29762;50.086;14.364;2022-10-19T14:12:20;2.00;;;1.77;;
44098;SDS011;29762;50.086;14.364;2022-10-19T14:17:41;2.60;;;1.83;;
44098;SDS011;29762;50.086;14.364;2022-10-19T14:28:59;2.30;;;1.92;;
44098;SDS011;29762;50.086;14.364;2022-10-19T14:34:18;1.98;;;1.80;;
44098;SDS011;29762;50.086;14.364;2022-10-19T14:39:38;2.10;;;1.80;;
44098;SDS011;29762;50.086;14.364;2022-10-19T14:44:59;2.63;;;1.30;;
44098;SDS011;29762;50.086;14.364;2022-10-19T14:50:20;2.08;;;1.10;;
44098;SDS011;29762;50.086;14.364;2022-10-19T14:55:41;2.65;;;0.90;;
44098;SDS011;29762;50.086;14.364;2022-10-19T15:01:01;1.40;;;1.10;;
44098;SDS011;29762;50.086;14.364;2022-10-19T15:06:25;6.03;;;1.35;;
44098;SDS011;29762;50.086;14.364;2022-10-19T15:11:46;5.60;;;1.20;;
44098;SDS011;29762;50.086;14.364;2022-10-19T15:22:47;5.85;;;1.50;;
44098;SDS011;29762;50.086;14.364;2022-10-19T15:33:59;2.67;;;1.50;;
44098;SDS011;29762;50.086;14.364;2022-10-19T15:39:20;7.72;;;1.45;;
44098;SDS011;29762;50.086;14.364;2022-10-19T15:44:41;4.78;;;1.40;;
44098;SDS011;29762;50.086;14.364;2022-10-19T15:50:01;5.53;;;1.33;;
44098;SDS011;29762;50.086;14.364;2022-10-19T15:55:21;4.95;;;1.40;;
44098;SDS011;29762;50.086;14.364;2022-10-19T16:00:40;2.60;;;1.50;;
44098;SDS011;29762;50.086;14.364;2022-10-19T16:06:00;5.32;;;1.48;;
44098;SDS011;29762;50.086;14.364;2022-10-19T16:11:20;1.85;;;1.30;;
44098;SDS011;29762;50.086;14.364;2022-10-19T16:16:41;2.55;;;1.40;;
44098;SDS011;29762;50.086;14.364;2022-10-19T16:22:00;6.95;;;1.50;;
44098;SDS011;29762;50.086;14.364;2022-10-19T16:27:19;4.07;;;1.60;;
44098;SDS011;29762;50.086;14.364;2022-10-19T16:32:39;3.40;;;1.20;;
44098;SDS011;29762;50.086;14.364;2022-10-19T16:37:58;5.93;;;1.30;;
44098;SDS011;29762;50.086;14.364;2022-10-19T16:43:17;3.50;;;1.20;;
44098;SDS011;29762;50.086;14.364;2022-10-19T16:48:36;3.45;;;1.52;;
44098;SDS011;29762;50.086;14.364;2022-10-19T16:53:56;14.95;;;1.45;;
44098;SDS011;29762;50.086;14.364;2022-10-19T16:59:17;4.38;;;1.30;;
44098;SDS011;29762;50.086;14.364;2022-10-19T17:04:37;7.25;;;1.60;;
44098;SDS011;29762;50.086;14.364;2022-10-19T17:09:57;4.88;;;1.48;;
44098;SDS011;29762;50.086;14.364;2022-10-19T17:15:16;3.85;;;1.42;;
44098;SDS011;29762;50.086;14.364;2022-10-19T17:20:36;4.85;;;1.20;;
44098;SDS011;29762;50.086;14.364;2022-10-19T17:25:55;5.25;;;1.48;;
44098;SDS011;29762;50.086;14.364;2022-10-19T17:31:15;4.05;;;1.38;;
44098;SDS011;29762;50.086;14.364;2022-10-19T17:36:36;3.10;;;1.30;;
44098;SDS011;29762;50.086;14.364;2022-10-19T17:41:57;2.65;;;1.20;;
44098;SDS011;29762;50.086;14.364;2022-10-19T17:47:21;5.50;;;1.30;;
44098;SDS011;29762;50.086;14.364;2022-10-19T17:52:41;2.25;;;1.20;;
44098;SDS011;29762;50.086;14.364;2022-10-19T17:58:01;2.67;;;1.10;;
44098;SDS011;29762;50.086;14.364;2022-10-19T18:03:21;3.85;;;1.40;;
44098;SDS011;29762;50.086;14.364;2022-10-19T18:08:43;2.58;;;1.00;;
44098;SDS011;29762;50.086;14.364;2022-10-19T18:14:06;1.73;;;1.00;;
44098;SDS011;29762;50.086;14.364;2022-10-19T18:19:26;4.03;;;1.10;;
44098;SDS011;29762;50.086;14.364;2022-10-19T18:24:46;2.30;;;0.80;;
44098;SDS011;29762;50.086;14.364;2022-10-19T18:30:05;2.10;;;1.08;;
44098;SDS011;29762;50.086;14.364;2022-10-19T18:35:24;2.85;;;1.02;;
44098;SDS011;29762;50.086;14.364;2022-10-19T18:40:44;2.67;;;1.00;;
44098;SDS011;29762;50.086;14.364;2022-10-19T18:46:03;1.88;;;1.00;;
44098;SDS011;29762;50.086;14.364;2022-10-19T18:51:23;3.10;;;1.10;;
44098;SDS011;29762;50.086;14.364;2022-10-19T18:56:42;1.58;;;1.10;;
44098;SDS011;29762;50.086;14.364;2022-10-19T19:02:01;4.70;;;1.10;;
44098;SDS011;29762;50.086;14.364;2022-10-19T19:07:21;2.35;;;1.10;;
44098;SDS011;29762;50.086;14.364;2022-10-19T19:12:41;2.38;;;1.08;;
44098;SDS011;29762;50.086;14.364;2022-10-19T19:18:01;4.03;;;1.10;;
44098;SDS011;29762;50.086;14.364;2022-10-19T19:23:22;2.83;;;1.20;;
44098;SDS011;29762;50.086;14.364;2022-10-19T19:28:41;3.22;;;1.10;;
44098;SDS011;29762;50.086;14.364;2022-10-19T19:34:01;2.70;;;1.20;;
44098;SDS011;29762;50.086;14.364;2022-10-19T19:39:21;2.50;;;1.10;;
44098;SDS011;29762;50.086;14.364;2022-10-19T19:44:40;4.70;;;1.30;;
44098;SDS011;29762;50.086;14.364;2022-10-19T19:50:00;2.03;;;1.15;;
44098;SDS011;29762;50.086;14.364;2022-10-19T19:55:19;2.15;;;1.10;;
44098;SDS011;29762;50.086;14.364;2022-10-19T20:00:38;2.03;;;1.13;;
44098;SDS011;29762;50.086;14.364;2022-10-19T20:06:00;3.60;;;1.17;;
44098;SDS011;29762;50.086;14.364;2022-10-19T20:11:21;4.55;;;1.20;;
44098;SDS011;29762;50.086;14.364;2022-10-19T20:16:41;1.67;;;1.15;;
44098;SDS011;29762;50.086;14.364;2022-10-19T20:22:01;2.95;;;1.27;;
44098;SDS011;29762;50.086;14.364;2022-10-19T20:27:22;2.83;;;1.30;;
44098;SDS011;29762;50.086;14.364;2022-10-19T20:32:43;2.92;;;1.10;;
44098;SDS011;29762;50.086;14.364;2022-10-19T20:38:03;1.70;;;0.90;;
44098;SDS011;29762;50.086;14.364;2022-10-19T20:43:22;2.67;;;1.27;;
44098;SDS011;29762;50.086;14.364;2022-10-19T20:48:42;1.77;;;1.02;;
44098;SDS011;29762;50.086;14.364;2022-10-19T20:54:02;2.38;;;1.00;;
44098;SDS011;29762;50.086;14.364;2022-10-19T20:59:24;2.92;;;1.17;;
44098;SDS011;29762;50.086;14.364;2022-10-19T21:04:45;2.47;;;1.00;;
44098;SDS011;29762;50.086;14.364;2022-10-19T21:10:05;3.33;;;0.95;;
44098;SDS011;29762;50.086;14.364;2022-10-19T21:15:24;1.00;;;0.88;;
44098;SDS011;29762;50.086;14.364;2022-10-19T21:20:44;2.05;;;1.10;;
44098;SDS011;29762;50.086;14.364;2022-10-19T21:26:03;6.07;;;1.10;;
44098;SDS011;29762;50.086;14.364;2022-10-19T21:31:22;1.73;;;1.02;;
44098;SDS011;29762;50.086;14.364;2022-10-19T21:36:43;3.28;;;1.00;;
44098;SDS011;29762;50.086;14.364;2022-10-19T21:42:03;1.38;;;1.00;;
44098;SDS011;29762;50.086;14.364;2022-10-19T21:47:22;2.45;;;1.20;;
44098;SDS011;29762;50.086;14.364;2022-10-19T21:52:41;1.48;;;0.90;;
44098;SDS011;29762;50.086;14.364;2022-10-19T21:58:02;2.47;;;1.05;;
44098;SDS011;29762;50.086;14.364;2022-10-19T22:03:22;3.10;;;1.10;;
44098;SDS011;29762;50.086;14.364;2022-10-19T22:08:45;1.67;;;1.17;;
44098;SDS011;29762;50.086;14.364;2022-10-19T22:14:04;1.35;;;0.80;;
44098;SDS011;29762;50.086;14.364;2022-10-19T22:19:24;2.80;;;1.20;;
44098;SDS011;29762;50.086;14.364;2022-10-19T22:24:44;2.53;;;0.93;;
44098;SDS011;29762;50.086;14.364;2022-10-19T22:30:03;1.98;;;0.75;;
44098;SDS011;29762;50.086;14.364;2022-10-19T22:35:23;1.98;;;1.08;;
44098;SDS011;29762;50.086;14.364;2022-10-19T22:40:42;1.73;;;1.00;;
44098;SDS011;29762;50.086;14.364;2022-10-19T22:52:55;1.67;;;1.10;;
44098;SDS011;29762;50.086;14.364;2022-10-19T22:58:15;1.30;;;0.95;;
44098;SDS011;29762;50.086;14.364;2022-10-19T23:03:35;1.15;;;0.80;;
44098;SDS011;29762;50.086;14.364;2022-10-19T23:08:57;1.92;;;0.88;;
44098;SDS011;29762;50.086;14.364;2022-10-19T23:14:16;2.05;;;1.02;;
44098;SDS011;29762;50.086;14.364;2022-10-19T23:19:36;1.35;;;0.77;;
44098;SDS011;29762;50.086;14.364;2022-10-19T23:24:55;2.03;;;1.17;;
44098;SDS011;29762;50.086;14.364;2022-10-19T23:30:14;1.10;;;0.90;;
44098;SDS011;29762;50.086;14.364;2022-10-19T23:35:33;1.63;;;1.00;;
44098;SDS011;29762;50.086;14.364;2022-10-19T23:40:53;1.10;;;0.90;;
44098;SDS011;29762;50.086;14.364;2022-10-19T23:46:12;0.80;;;0.80;;
44098;SDS011;29762;50.086;14.364;2022-10-19T23:51:32;1.10;;;0.90;;
44098;SDS011;29762;50.086;14.364;2022-10-19T23:56:51;1.52;;;0.90;;
